Flag for USA

Past Weather in Prospect, Kentucky, USA — Yesterday and Last 2 Weeks

Currently: 35 °F. Overcast. (Weather station: Bowman Field, USA). See more current weather

Past Weather in Prospect — Graph

°F

Prospect Temperature Yesterday

Maximum temperature yesterday: 51 °F (at 2:21 pm)
Minimum temperature yesterday: 37 °F (at 10:53 pm)
Average temperature yesterday: 44 °F

High & Low Weather Summary for the Past Weeks

 TemperatureHumidityPressure
High53 °F (Jan 14, 3:53 pm)93% (Jan 24, 7:53 pm)30.44 "Hg (Jan 24, 7:53 pm)
Low19 °F (Jan 23, 7:53 am)33% (Jan 22, 2:53 pm)29.56 "Hg (Jan 15, 1:53 pm)
Average37 °F70%29.96 "Hg
* Reported Jan 12 7:53 am — Jan 27 7:53 am, Prospect. Weather by CustomWeather, © 2021

Note: Actual official high and low records may vary slightly from our data, if they occured in-between our weather recording intervals... More about our weather records

Prospect Weather History for the Previous 24 Hours

Scroll right to see more
 ConditionsComfort  
Time TempWeatherWind HumidityBarometerVisibility
7:53 am
Wed, Jan 27
35 °FOvercast.10 mph64%30.19 "Hg10 mi
6:53 am35 °FOvercast.10 mph61%30.16 "Hg10 mi
5:53 am35 °FOvercast.7 mph64%30.15 "Hg10 mi
4:53 am35 °FOvercast.9 mph61%30.18 "Hg10 mi
3:53 am35 °FOvercast.5 mph64%30.19 "Hg10 mi
2:53 am35 °FOvercast.8 mph64%30.18 "Hg10 mi
1:53 am36 °FOvercast.8 mph64%30.14 "Hg10 mi
12:53 am37 °FOvercast.5 mph62%30.11 "Hg10 mi
11:53 pm
Tue, Jan 26
37 °FOvercast.7 mph62%30.11 "Hg10 mi
10:53 pm37 °FOvercast.9 mph62%30.10 "Hg10 mi
9:53 pm38 °FOvercast.8 mph65%30.07 "Hg10 mi
9:36 pm39 °FOvercast.12 mph62%30.07 "Hg10 mi
8:53 pm39 °FMostly cloudy.10 mph65%30.06 "Hg10 mi
8:04 pm41 °FOvercast.12 mph62%30.03 "Hg10 mi
7:53 pm41 °FOvercast.12 mph62%30.03 "Hg10 mi
6:53 pm44 °FOvercast.10 mph63%29.99 "Hg10 mi
6:34 pm44 °FMostly cloudy.13 mph63%29.98 "Hg10 mi
5:53 pm46 °FMostly cloudy.16 mph63%29.96 "Hg10 mi
4:53 pm47 °FOvercast.14 mph66%29.93 "Hg10 mi
4:37 pm48 °FCloudy.12 mph63%29.92 "Hg10 mi
3:53 pm48 °FOvercast.13 mph63%29.90 "Hg10 mi
3:08 pm50 °FMostly cloudy.16 mph63%29.86 "Hg10 mi
2:21 pm51 °FCloudy.15 mph63%29.85 "Hg10 mi
1:53 pm50 °FCloudy.15 mph63%29.85 "Hg10 mi
1:28 pm50 °FMore clouds than sun.17 mph66%29.85 "Hg10 mi
1:00 pm49 °FCloudy.17 mph69%29.85 "Hg10 mi
12:34 pm50 °FMostly cloudy.14 mph68%29.85 "Hg10 mi
11:53 am49 °FMostly cloudy.12 mph74%29.85 "Hg10 mi
11:13 am48 °FMostly cloudy.10 mph77%29.84 "Hg10 mi
10:53 am47 °FMore clouds than sun.12 mph80%29.83 "Hg10 mi
9:53 am45 °FOvercast.9 mph82%29.82 "Hg10 mi
Weather by CustomWeather, © 2021

See weather overview